Time;durP1;ratioP1;P1;durP2;ratioP2;P2;SDS_P1;SDS_P2;PMS_P1;PMS_P2;Temp;Humidity;BMP_temperature;BMP_pressure;BME280_temperature;BME280_humidity;BME280_pressure;Samples;Min_cycle;Max_cycle;Signal;HPM_P1;HPM_P2
2021/12/03 00:00:00;;;;;;;7.78;3.63;;;3.30;92.90;;;;;;4991500;28;20041;-74
2021/12/03 00:02:27;;;;;;;8.00;3.70;;;3.30;93.00;;;;;;4993246;28;20018;-74
2021/12/03 00:04:52;;;;;;;7.18;3.47;;;3.40;92.90;;;;;;4992817;28;20035;-73
2021/12/03 00:07:18;;;;;;;8.48;3.72;;;3.40;92.70;;;;;;4992666;28;20112;-74
2021/12/03 00:09:44;;;;;;;7.53;4.30;;;3.30;92.60;;;;;;4992865;28;20034;-73
2021/12/03 00:12:10;;;;;;;10.95;4.35;;;3.30;92.70;;;;;;4992993;28;20023;-73
2021/12/03 00:14:36;;;;;;;9.27;4.25;;;3.30;92.70;;;;;;4993259;28;20337;-73
2021/12/03 00:17:03;;;;;;;12.88;4.97;;;3.40;92.70;;;;;;4992548;28;20569;-73
2021/12/03 00:19:29;;;;;;;9.10;3.67;;;3.30;92.60;;;;;;4992763;28;20113;-72
2021/12/03 00:21:55;;;;;;;11.73;5.07;;;3.40;92.60;;;;;;4992687;28;20313;-73
2021/12/03 00:24:20;;;;;;;12.85;4.65;;;3.40;92.60;;;;;;4992332;28;20607;-74
2021/12/03 00:26:46;;;;;;;15.15;4.82;;;3.40;92.50;;;;;;4993220;28;20034;-73
2021/12/03 00:29:13;;;;;;;13.77;4.53;;;3.40;92.60;;;;;;4991481;28;20484;-74
2021/12/03 00:31:38;;;;;;;11.90;5.28;;;3.40;92.70;;;;;;4991326;28;20100;-73
2021/12/03 00:34:04;;;;;;;7.78;4.25;;;3.40;92.70;;;;;;4991214;28;20457;-74
2021/12/03 00:36:30;;;;;;;13.32;5.13;;;3.40;92.80;;;;;;4992183;28;20368;-74
2021/12/03 00:38:59;;;;;;;14.68;4.50;;;3.40;92.80;;;;;;4992703;28;20345;-74
2021/12/03 00:41:28;;;;;;;9.63;4.32;;;3.40;92.90;;;;;;4991547;28;20392;-73
2021/12/03 00:43:54;;;;;;;10.60;4.65;;;3.40;93.00;;;;;;4992278;28;20373;-74
2021/12/03 00:46:22;;;;;;;9.85;4.45;;;3.50;92.90;;;;;;4992084;28;20046;-74
2021/12/03 00:48:49;;;;;;;;;;;3.40;92.70;;;;;;4991570;28;20041;-74
2021/12/03 00:51:16;;;;;;;12.97;4.50;;;3.50;92.50;;;;;;5007304;28;19916;-74
2021/12/03 00:53:42;;;;;;;12.70;4.30;;;3.40;92.40;;;;;;4992739;28;20033;-73
2021/12/03 00:56:09;;;;;;;10.70;4.25;;;3.50;92.40;;;;;;4991217;28;20065;-75
2021/12/03 00:58:36;;;;;;;6.68;4.22;;;3.40;92.20;;;;;;4990696;28;20060;-76
2021/12/03 01:01:03;;;;;;;15.27;4.60;;;3.50;92.20;;;;;;4992083;28;20353;-75
2021/12/03 01:03:29;;;;;;;10.55;5.05;;;3.50;92.10;;;;;;4991913;28;20030;-75
2021/12/03 01:05:55;;;;;;;13.40;4.95;;;3.50;92.00;;;;;;4992348;28;20022;-74
2021/12/03 01:08:21;;;;;;;11.25;4.55;;;3.50;92.10;;;;;;4991610;28;20045;-75
2021/12/03 01:10:46;;;;;;;11.05;4.68;;;3.60;92.00;;;;;;4990897;28;20117;-74
2021/12/03 01:13:12;;;;;;;7.70;4.43;;;3.60;92.00;;;;;;4990806;28;20449;-73
2021/12/03 01:15:38;;;;;;;9.45;4.00;;;3.50;92.00;;;;;;4991584;28;20056;-74
2021/12/03 01:18:06;;;;;;;8.80;4.20;;;3.60;91.90;;;;;;4991742;28;20018;-75
2021/12/03 01:20:33;;;;;;;17.73;4.88;;;3.60;92.10;;;;;;4991923;28;20026;-75
2021/12/03 01:22:59;;;;;;;7.17;4.30;;;3.70;92.10;;;;;;4991747;28;20031;-75
2021/12/03 01:25:25;;;;;;;11.07;4.80;;;3.60;91.90;;;;;;4991558;28;20661;-74
2021/12/03 01:27:52;;;;;;;9.93;4.07;;;3.50;92.10;;;;;;4991775;28;20202;-75
2021/12/03 01:30:21;;;;;;;7.57;4.50;;;3.60;92.10;;;;;;4990634;28;20034;-74
2021/12/03 01:32:48;;;;;;;8.63;4.25;;;3.50;92.10;;;;;;4991113;28;20076;-74
2021/12/03 01:35:14;;;;;;;11.30;4.40;;;3.50;92.10;;;;;;4991592;28;20037;-74
2021/12/03 01:37:41;;;;;;;12.35;5.40;;;3.50;92.20;;;;;;4991328;28;20372;-73
2021/12/03 01:40:11;;;;;;;9.45;4.35;;;3.60;92.10;;;;;;4990311;28;20038;-73
2021/12/03 01:42:38;;;;;;;9.63;4.20;;;3.50;92.10;;;;;;4990315;28;20026;-73
2021/12/03 01:45:05;;;;;;;9.00;4.38;;;3.60;92.20;;;;;;4991565;28;20416;-73
2021/12/03 01:47:31;;;;;;;12.98;4.93;;;3.60;92.20;;;;;;4991764;28;20073;-73
2021/12/03 01:49:57;;;;;;;15.05;4.57;;;3.50;92.20;;;;;;4991582;28;20085;-74
2021/12/03 01:52:22;;;;;;;8.75;4.55;;;3.60;92.30;;;;;;4991257;28;20483;-73
2021/12/03 01:54:48;;;;;;;11.48;4.70;;;3.60;92.40;;;;;;4991186;28;20053;-73
2021/12/03 01:57:14;;;;;;;11.93;4.50;;;3.60;92.30;;;;;;4991238;28;20034;-73
2021/12/03 01:59:39;;;;;;;11.90;5.82;;;3.60;92.40;;;;;;4990028;28;20038;-74
2021/12/03 02:02:05;;;;;;;10.63;5.10;;;3.60;92.50;;;;;;4991596;28;20411;-74
2021/12/03 02:04:31;;;;;;;13.52;5.03;;;3.60;92.50;;;;;;4990636;28;20109;-73
2021/12/03 02:06:57;;;;;;;12.98;5.70;;;3.70;92.50;;;;;;4991575;28;20405;-74
2021/12/03 02:09:22;;;;;;;12.48;5.40;;;3.60;92.50;;;;;;4990013;28;20044;-76
2021/12/03 02:11:48;;;;;;;18.55;6.22;;;3.60;92.80;;;;;;4991672;28;20401;-73
2021/12/03 02:14:14;;;;;;;11.95;5.25;;;3.60;92.50;;;;;;4990101;28;20038;-73
2021/12/03 02:16:40;;;;;;;12.80;5.45;;;3.60;92.60;;;;;;4991028;28;20498;-72
2021/12/03 02:19:05;;;;;;;13.13;5.90;;;3.60;92.70;;;;;;4992090;28;20066;-74
2021/12/03 02:21:32;;;;;;;17.42;6.32;;;3.70;92.70;;;;;;4994770;28;20105;-73
2021/12/03 02:23:57;;;;;;;14.43;6.03;;;3.70;92.70;;;;;;4993650;28;20530;-74
2021/12/03 02:26:24;;;;;;;14.30;6.60;;;3.70;92.70;;;;;;4994915;28;20038;-73
2021/12/03 02:28:51;;;;;;;10.82;5.97;;;3.70;92.70;;;;;;4994711;28;20090;-73
2021/12/03 02:31:19;;;;;;;14.50;5.93;;;3.70;92.70;;;;;;4994580;28;20066;-73
2021/12/03 02:33:46;;;;;;;;;;;3.70;92.80;;;;;;4994005;28;20373;-73
2021/12/03 02:36:12;;;;;;;12.80;6.00;;;3.60;92.90;;;;;;5021048;28;19909;-73
2021/12/03 02:38:39;;;;;;;11.75;5.93;;;3.60;93.10;;;;;;5014346;28;20054;-73
2021/12/03 02:41:05;;;;;;;13.88;5.80;;;3.70;93.00;;;;;;5012804;28;20034;-72
2021/12/03 02:43:31;;;;;;;15.10;6.55;;;3.60;93.00;;;;;;5014110;28;20554;-73
2021/12/03 02:45:57;;;;;;;17.65;7.88;;;3.60;92.90;;;;;;5014150;28;20490;-72
2021/12/03 02:48:24;;;;;;;14.05;6.40;;;3.50;93.10;;;;;;5013877;28;20088;-74
2021/12/03 02:50:50;;;;;;;20.45;7.32;;;3.60;93.20;;;;;;5014351;28;20105;-73
2021/12/03 02:53:16;;;;;;;14.65;7.20;;;3.60;93.20;;;;;;5012953;28;20072;-74
2021/12/03 02:55:42;;;;;;;13.50;7.05;;;3.50;93.20;;;;;;5013733;28;20432;-73
2021/12/03 02:58:08;;;;;;;17.20;6.60;;;3.50;93.30;;;;;;5012741;28;20068;-73
2021/12/03 03:00:36;;;;;;;13.73;6.88;;;3.50;93.40;;;;;;5013356;28;20045;-74
2021/12/03 03:03:02;;;;;;;17.63;7.85;;;3.50;93.50;;;;;;5013609;28;20030;-74
2021/12/03 03:05:28;;;;;;;15.07;6.55;;;3.50;93.40;;;;;;5013960;28;20026;-74
2021/12/03 03:07:54;;;;;;;17.92;8.00;;;3.60;93.50;;;;;;5013593;28;20130;-74
2021/12/03 03:10:25;;;;;;;14.60;6.95;;;3.60;93.60;;;;;;5012246;28;20405;-75
2021/12/03 03:12:52;;;;;;;18.10;8.45;;;3.60;93.60;;;;;;5013270;28;20096;-74
2021/12/03 03:15:18;;;;;;;18.05;7.57;;;3.50;93.50;;;;;;5012054;28;20033;-75
2021/12/03 03:17:45;;;;;;;16.85;7.65;;;3.50;93.60;;;;;;5013779;28;20025;-73
2021/12/03 03:20:12;;;;;;;17.02;8.25;;;3.50;93.70;;;;;;5012198;28;20037;-74
2021/12/03 03:22:39;;;;;;;19.98;8.65;;;3.40;93.90;;;;;;5013134;28;20022;-74
2021/12/03 03:25:07;;;;;;;20.83;10.00;;;3.40;94.00;;;;;;5013223;28;20479;-72
2021/12/03 03:27:33;;;;;;;16.98;8.20;;;3.40;94.00;;;;;;5013037;28;20041;-72
2021/12/03 03:29:59;;;;;;;17.20;8.77;;;3.40;94.00;;;;;;5012953;28;20034;-73
2021/12/03 03:32:27;;;;;;;19.90;8.95;;;3.50;94.00;;;;;;5013502;28;20405;-74
2021/12/03 03:34:54;;;;;;;;;;;3.50;93.90;;;;;;5012579;28;20041;-73
2021/12/03 03:37:21;;;;;;;23.60;10.43;;;3.50;94.00;;;;;;5012955;28;19921;-74
2021/12/03 03:39:47;;;;;;;24.75;10.23;;;3.50;94.00;;;;;;5012855;28;20046;-74
2021/12/03 03:42:14;;;;;;;21.08;10.10;;;3.50;94.10;;;;;;5013112;28;20033;-74
2021/12/03 03:44:40;;;;;;;21.60;9.25;;;3.50;94.00;;;;;;5013233;28;20475;-74
2021/12/03 03:47:07;;;;;;;22.80;10.57;;;3.50;94.10;;;;;;5012962;28;20514;-74
2021/12/03 03:49:34;;;;;;;25.10;12.07;;;3.50;94.10;;;;;;5011608;28;20467;-74
2021/12/03 03:52:00;;;;;;;21.88;10.18;;;3.50;94.20;;;;;;5012741;28;20398;-74
2021/12/03 03:54:26;;;;;;;24.90;10.50;;;3.50;94.10;;;;;;5012509;28;20601;-74
2021/12/03 03:56:52;;;;;;;22.52;10.88;;;3.60;94.10;;;;;;5013049;28;20034;-74
2021/12/03 03:59:18;;;;;;;23.77;10.82;;;3.50;94.20;;;;;;5012379;28;20046;-74
2021/12/03 04:01:45;;;;;;;24.30;10.25;;;3.60;94.20;;;;;;5011373;28;20061;-73
2021/12/03 04:04:11;;;;;;;25.77;10.70;;;3.60;94.10;;;;;;5011521;28;20034;-74
2021/12/03 04:06:37;;;;;;;28.33;11.80;;;3.60;94.10;;;;;;5012511;28;20038;-74
2021/12/03 04:09:03;;;;;;;24.80;11.60;;;3.50;94.30;;;;;;5011750;28;20084;-74
2021/12/03 04:11:29;;;;;;;23.67;11.57;;;3.50;94.40;;;;;;5012704;28;20022;-73
2021/12/03 04:13:55;;;;;;;24.73;11.43;;;3.50;94.30;;;;;;5012586;28;20438;-74
2021/12/03 04:16:21;;;;;;;24.70;11.40;;;3.60;94.20;;;;;;5012415;28;20026;-73
2021/12/03 04:18:47;;;;;;;26.08;11.20;;;3.60;94.20;;;;;;5012331;28;20033;-75
2021/12/03 04:21:14;;;;;;;25.70;11.60;;;3.60;94.10;;;;;;5012082;28;20520;-73
2021/12/03 04:23:40;;;;;;;26.38;11.82;;;3.60;94.20;;;;;;5012375;28;20026;-73
2021/12/03 04:26:05;;;;;;;22.20;10.43;;;3.60;94.10;;;;;;5011263;28;20121;-75
2021/12/03 04:28:31;;;;;;;25.88;11.50;;;3.50;94.20;;;;;;5012288;28;20042;-73
2021/12/03 04:30:57;;;;;;;26.20;11.38;;;3.50;94.30;;;;;;5011968;28;20038;-74
2021/12/03 04:33:23;;;;;;;31.77;12.00;;;3.50;94.30;;;;;;5012029;28;20360;-74
2021/12/03 04:35:48;;;;;;;30.98;11.85;;;3.50;94.40;;;;;;5012243;28;20100;-72
2021/12/03 04:38:14;;;;;;;25.77;11.23;;;3.50;94.40;;;;;;5011093;28;20034;-74
2021/12/03 04:40:40;;;;;;;24.23;11.90;;;3.70;94.40;;;;;;5011708;28;20053;-73
2021/12/03 04:43:07;;;;;;;24.83;11.48;;;3.50;94.50;;;;;;5011213;28;20064;-72
2021/12/03 04:45:34;;;;;;;21.50;11.05;;;3.60;94.50;;;;;;5011721;28;20116;-73
2021/12/03 04:48:03;;;;;;;23.60;10.65;;;3.50;94.50;;;;;;5011760;28;20580;-74
2021/12/03 04:50:32;;;;;;;26.63;11.23;;;3.50;94.50;;;;;;5012137;28;20030;-74
2021/12/03 04:52:59;;;;;;;27.38;11.95;;;3.60;94.70;;;;;;5010744;28;20038;-73
2021/12/03 04:55:25;;;;;;;24.33;11.40;;;3.50;94.70;;;;;;5011686;28;20030;-74
2021/12/03 04:57:53;;;;;;;24.30;11.20;;;3.60;94.60;;;;;;5010233;28;20030;-73
2021/12/03 05:00:23;;;;;;;22.63;9.85;;;3.60;94.60;;;;;;5011328;28;20049;-74
2021/12/03 05:02:50;;;;;;;24.08;11.43;;;3.60;94.70;;;;;;5011807;28;20046;-73
2021/12/03 05:05:17;;;;;;;22.42;10.85;;;3.50;94.80;;;;;;5011795;28;20111;-73
2021/12/03 05:07:57;;;;;;;26.85;11.10;;;3.60;94.90;;;;;;5011382;28;20030;-73
2021/12/03 05:10:25;;;;;;;21.65;9.73;;;3.60;95.00;;;;;;5010528;28;20025;-73
2021/12/03 05:12:52;;;;;;;;;;;3.60;94.90;;;;;;5011719;28;20029;-74
2021/12/03 05:15:18;;;;;;;26.80;10.52;;;3.60;94.90;;;;;;5010367;28;19909;-74
2021/12/03 05:17:44;;;;;;;25.00;10.32;;;3.60;95.00;;;;;;5011579;28;20029;-74
2021/12/03 05:20:10;;;;;;;21.83;10.30;;;3.70;94.90;;;;;;5011667;28;20367;-73
2021/12/03 05:22:35;;;;;;;21.25;10.20;;;3.70;95.10;;;;;;5010544;28;20109;-74
2021/12/03 05:25:01;;;;;;;23.67;10.77;;;3.80;94.80;;;;;;5011138;28;20033;-74
2021/12/03 05:27:26;;;;;;;27.15;11.63;;;3.80;94.80;;;;;;5011297;28;20088;-74
2021/12/03 05:29:52;;;;;;;22.25;9.95;;;3.80;94.80;;;;;;5011539;28;20057;-73
2021/12/03 05:32:18;;;;;;;23.77;9.90;;;3.80;94.80;;;;;;5011283;28;20056;-74
2021/12/03 05:34:44;;;;;;;22.10;10.88;;;3.90;94.70;;;;;;5010052;28;20092;-74
2021/12/03 05:37:10;;;;;;;23.25;11.10;;;3.80;94.60;;;;;;5011245;28;20030;-74
2021/12/03 05:39:36;;;;;;;25.40;10.85;;;3.80;94.70;;;;;;5011340;28;20371;-74
2021/12/03 05:42:03;;;;;;;21.67;10.98;;;3.80;94.70;;;;;;5010864;28;20072;-74
2021/12/03 05:44:30;;;;;;;24.30;10.30;;;3.90;94.60;;;;;;5011490;28;20014;-74
2021/12/03 05:46:59;;;;;;;24.02;10.32;;;3.80;94.50;;;;;;5011023;28;20458;-74
2021/12/03 05:49:25;;;;;;;29.33;10.75;;;3.90;94.50;;;;;;5010911;28;20088;-75
2021/12/03 05:51:51;;;;;;;25.38;10.13;;;3.80;94.60;;;;;;5010792;28;20123;-73
2021/12/03 05:54:18;;;;;;;26.48;11.13;;;3.80;94.70;;;;;;5011400;28;20359;-73
2021/12/03 05:56:44;;;;;;;26.73;11.50;;;3.80;94.70;;;;;;5015229;28;20032;-73
2021/12/03 05:59:09;;;;;;;25.23;11.07;;;3.80;94.70;;;;;;5014553;28;20038;-74
2021/12/03 06:01:35;;;;;;;25.67;11.27;;;3.80;94.80;;;;;;5014964;28;20121;-74
2021/12/03 06:04:00;;;;;;;31.88;13.23;;;3.80;94.70;;;;;;5013510;28;20034;-74
2021/12/03 06:06:26;;;;;;;27.58;11.20;;;3.80;94.80;;;;;;5014970;28;20026;-75
2021/12/03 06:08:52;;;;;;;27.80;11.68;;;3.80;94.80;;;;;;5014882;28;20443;-75
2021/12/03 06:11:18;;;;;;;28.63;11.70;;;3.80;95.00;;;;;;5014930;28;20069;-74
2021/12/03 06:13:43;;;;;;;28.77;11.93;;;3.80;94.80;;;;;;5014593;28;20372;-74
2021/12/03 06:16:11;;;;;;;26.38;11.60;;;3.80;94.90;;;;;;5014505;28;20103;-74
2021/12/03 06:18:37;;;;;;;30.83;13.00;;;3.90;95.10;;;;;;5014846;28;20136;-75
2021/12/03 06:21:05;;;;;;;34.17;13.68;;;3.90;95.00;;;;;;5014247;28;20045;-73
2021/12/03 06:23:30;;;;;;;30.63;12.93;;;3.90;95.00;;;;;;5014195;28;20026;-74
2021/12/03 06:25:58;;;;;;;40.70;13.77;;;3.90;95.00;;;;;;5014199;28;20550;-74
2021/12/03 06:28:25;;;;;;;33.10;12.75;;;3.90;95.00;;;;;;5013176;28;20022;-73
2021/12/03 06:30:50;;;;;;;29.55;12.45;;;4.00;95.00;;;;;;5009616;28;20042;-74
2021/12/03 06:33:16;;;;;;;29.92;13.55;;;4.00;95.00;;;;;;4993669;28;20436;-75
2021/12/03 06:35:42;;;;;;;31.90;13.10;;;4.10;94.90;;;;;;4995374;28;20067;-74
2021/12/03 06:38:07;;;;;;;29.08;11.82;;;4.20;94.80;;;;;;4994603;28;20368;-75
2021/12/03 06:40:33;;;;;;;28.98;12.45;;;4.30;94.90;;;;;;4994836;28;20130;-74
2021/12/03 06:42:59;;;;;;;34.65;14.23;;;4.30;94.80;;;;;;4992971;28;20026;-73
2021/12/03 06:45:24;;;;;;;31.10;13.63;;;4.20;94.80;;;;;;4993398;28;20116;-72
2021/12/03 06:47:52;;;;;;;35.05;13.80;;;4.30;95.00;;;;;;4994694;28;20052;-73
2021/12/03 06:50:18;;;;;;;32.75;13.25;;;4.30;95.00;;;;;;4994079;28;20049;-72
2021/12/03 06:52:49;;;;;;;30.67;12.70;;;4.30;94.90;;;;;;4994107;28;20035;-72
2021/12/03 06:55:15;;;;;;;32.05;12.55;;;4.40;94.90;;;;;;4995062;28;20030;-72
2021/12/03 06:57:44;;;;;;;31.48;12.65;;;4.40;95.10;;;;;;4994965;28;20042;-72
2021/12/03 07:00:12;;;;;;;35.22;12.05;;;4.40;94.90;;;;;;4994693;28;20349;-71
2021/12/03 07:02:38;;;;;;;28.00;13.43;;;4.40;95.00;;;;;;4995437;28;20037;-73
2021/12/03 07:05:04;;;;;;;27.38;13.00;;;4.40;94.90;;;;;;4994620;28;20052;-73
2021/12/03 07:07:31;;;;;;;34.22;13.20;;;4.60;95.00;;;;;;4994775;28;20403;-73
2021/12/03 07:09:56;;;;;;;27.50;12.02;;;4.60;94.80;;;;;;4994732;28;20105;-74
2021/12/03 07:12:22;;;;;;;28.80;12.95;;;4.60;94.80;;;;;;4994499;28;20468;-73
2021/12/03 07:14:48;;;;;;;28.10;12.25;;;4.60;94.80;;;;;;4977439;28;20026;-74
2021/12/03 07:17:14;;;;;;;29.33;12.60;;;4.50;94.80;;;;;;4975295;28;20041;-71
2021/12/03 07:19:40;;;;;;;26.77;12.70;;;4.50;94.80;;;;;;4975018;28;20070;-77
2021/12/03 07:22:06;;;;;;;32.42;14.90;;;4.50;94.90;;;;;;4974864;28;20039;-76
2021/12/03 07:24:33;;;;;;;26.70;13.45;;;4.60;94.90;;;;;;4974531;28;20421;-75
2021/12/03 07:26:59;;;;;;;29.55;12.48;;;4.50;94.90;;;;;;4989991;28;20387;-72
2021/12/03 07:29:25;;;;;;;30.50;13.65;;;4.50;95.10;;;;;;4975187;28;20031;-72
2021/12/03 07:31:50;;;;;;;27.73;14.52;;;4.60;95.10;;;;;;4973383;28;20420;-70
2021/12/03 07:34:16;;;;;;;31.70;14.00;;;4.60;95.60;;;;;;4973657;28;20042;-72
2021/12/03 07:36:42;;;;;;;28.17;13.07;;;4.70;95.60;;;;;;4974234;28;20419;-73
2021/12/03 07:39:08;;;;;;;25.65;13.25;;;4.80;95.60;;;;;;4973967;28;20372;-73
2021/12/03 07:41:36;;;;;;;30.42;14.00;;;4.80;95.10;;;;;;4989816;28;20031;-73
2021/12/03 07:44:02;;;;;;;31.25;13.18;;;4.90;95.20;;;;;;4973544;28;20038;-76
2021/12/03 07:46:28;;;;;;;31.42;13.80;;;4.80;95.00;;;;;;4973147;28;20512;-77
2021/12/03 07:48:54;;;;;;;25.85;12.45;;;4.80;95.00;;;;;;4973266;28;20035;-77
2021/12/03 07:51:19;;;;;;;27.38;12.25;;;4.80;94.80;;;;;;4973023;28;20318;-77
2021/12/03 07:53:45;;;;;;;31.50;12.38;;;4.80;94.80;;;;;;4973508;28;20445;-77
2021/12/03 07:56:11;;;;;;;29.70;12.68;;;4.90;94.90;;;;;;4973087;28;20054;-79
2021/12/03 07:58:37;;;;;;;25.58;11.90;;;4.80;94.80;;;;;;4973251;28;20480;-76
2021/12/03 08:01:03;;;;;;;26.55;10.73;;;4.70;94.90;;;;;;4973177;28;20043;-79
2021/12/03 08:03:29;;;;;;;27.38;12.27;;;4.60;94.90;;;;;;4972933;28;20465;-78
2021/12/03 08:05:54;;;;;;;30.15;11.02;;;4.70;95.00;;;;;;4973649;28;20035;-77
2021/12/03 08:08:25;;;;;;;26.15;11.73;;;4.70;95.00;;;;;;4971770;28;20031;-77
2021/12/03 08:10:51;;;;;;;28.63;12.68;;;4.60;95.00;;;;;;4972881;28;20653;-78
2021/12/03 08:13:17;;;;;;;26.05;12.00;;;4.70;95.00;;;;;;4972888;28;20078;-77
2021/12/03 08:15:42;;;;;;;24.33;11.60;;;4.70;95.10;;;;;;4987959;28;20319;-77
2021/12/03 08:18:08;;;;;;;26.83;12.85;;;4.70;95.10;;;;;;4972056;28;20030;-72
2021/12/03 08:20:34;;;;;;;23.10;11.13;;;4.70;95.10;;;;;;4972237;28;20105;-76
2021/12/03 08:23:01;;;;;;;25.67;10.77;;;4.60;95.10;;;;;;4972576;28;20027;-77
2021/12/03 08:25:27;;;;;;;30.05;11.63;;;4.60;95.10;;;;;;4972987;28;20039;-77
2021/12/03 08:27:53;;;;;;;30.42;12.80;;;4.60;95.20;;;;;;4972698;28;20050;-76
2021/12/03 08:30:19;;;;;;;25.40;11.77;;;4.70;95.30;;;;;;4972628;28;20534;-77
2021/12/03 08:32:45;;;;;;;24.35;12.15;;;4.70;95.00;;;;;;4971505;28;20420;-76
2021/12/03 08:35:11;;;;;;;27.55;13.18;;;4.70;95.00;;;;;;4972787;28;20137;-75
2021/12/03 08:37:37;;;;;;;31.40;12.57;;;4.80;95.00;;;;;;4972297;28;20031;-72
2021/12/03 08:40:05;;;;;;;26.38;11.80;;;4.80;94.90;;;;;;4972601;28;20598;-78
2021/12/03 08:42:31;;;;;;;29.23;12.25;;;4.80;94.90;;;;;;4987609;28;20468;-80
2021/12/03 08:44:58;;;;;;;27.63;12.05;;;4.70;94.90;;;;;;4972190;28;20034;-72
2021/12/03 08:47:24;;;;;;;23.85;10.60;;;4.80;94.90;;;;;;4973006;28;20027;-80
2021/12/03 08:49:57;;;;;;;28.65;12.10;;;4.90;95.80;;;;;;4971972;28;20027;-79
2021/12/03 08:52:32;;;;;;;26.25;11.80;;;4.90;94.90;;;;;;4971043;28;20023;-77
2021/12/03 08:54:57;;;;;;;24.60;10.85;;;4.90;94.70;;;;;;4987028;28;20031;-78
2021/12/03 08:57:26;;;;;;;25.33;10.60;;;4.90;94.70;;;;;;4986797;28;20085;-77
2021/12/03 08:59:54;;;;;;;24.90;11.60;;;4.80;94.60;;;;;;4972086;28;20055;-78
2021/12/03 09:02:21;;;;;;;28.90;12.10;;;4.80;94.80;;;;;;4970944;28;20136;-80
2021/12/03 09:04:48;;;;;;;32.40;11.63;;;5.00;94.90;;;;;;4970941;28;20031;-81
2021/12/03 09:07:14;;;;;;;28.10;11.52;;;4.90;94.70;;;;;;4971933;28;20085;-80
2021/12/03 09:09:40;;;;;;;26.00;10.75;;;4.90;94.60;;;;;;4987064;28;20031;-79
2021/12/03 09:12:06;;;;;;;24.30;10.10;;;5.00;94.70;;;;;;4971732;28;20027;-80
2021/12/03 09:17:15;;;;;;;26.30;10.77;;;5.00;94.60;;;;;;4972655;28;20043;-77
2021/12/03 09:19:53;;;;;;;22.15;10.30;;;5.00;94.60;;;;;;4970959;28;20157;-81
2021/12/03 09:22:55;;;;;;;22.58;11.07;;;5.10;94.60;;;;;;4971797;28;20264;-79
2021/12/03 09:25:17;;;;;;;25.38;11.05;;;5.00;94.50;;;;;;4970746;28;20104;-82
2021/12/03 09:27:43;;;;;;;23.55;10.82;;;5.10;94.40;;;;;;4971675;28;20110;-79
2021/12/03 09:30:12;;;;;;;21.70;10.40;;;5.10;94.40;;;;;;4970659;28;20123;-72
2021/12/03 09:32:39;;;;;;;22.88;10.65;;;5.30;94.40;;;;;;4972237;28;20027;-80
2021/12/03 09:35:05;;;;;;;26.67;11.07;;;5.20;94.30;;;;;;4971720;28;20043;-79
2021/12/03 09:37:31;;;;;;;29.23;10.82;;;5.20;94.40;;;;;;4971822;28;20495;-81
2021/12/03 09:40:03;;;;;;;23.45;11.25;;;5.10;94.30;;;;;;4971847;28;20070;-80
2021/12/03 09:42:29;;;;;;;22.27;10.18;;;5.20;94.50;;;;;;4986934;28;20038;-79
2021/12/03 09:44:55;;;;;;;26.85;12.70;;;5.20;94.20;;;;;;4987122;28;20085;-79
2021/12/03 09:47:20;;;;;;;28.08;11.40;;;5.40;94.40;;;;;;4987378;28;20125;-83
2021/12/03 09:49:54;;;;;;;19.13;10.00;;;5.30;94.20;;;;;;4971891;28;20035;-77
2021/12/03 09:54:59;;;;;;;27.58;9.85;;;5.50;94.10;;;;;;4972276;28;20461;-80
2021/12/03 09:57:38;;;;;;;30.05;10.50;;;5.50;94.10;;;;;;4971506;28;20348;-81
2021/12/03 10:00:57;;;;;;;18.10;9.25;;;5.60;94.00;;;;;;4970668;28;20442;-84
2021/12/03 10:20:09;;;;;;;24.13;8.98;;;6.10;93.30;;;;;;4970992;28;20113;-74
2021/12/03 10:33:40;;;;;;;25.15;9.98;;;6.10;93.10;;;;;;4971104;28;20027;-78
2021/12/03 10:39:16;;;;;;;23.50;10.82;;;6.10;93.10;;;;;;4948846;28;20035;-75
2021/12/03 10:42:01;;;;;;;21.52;9.43;;;6.10;93.20;;;;;;4974513;28;20106;-79
2021/12/03 10:44:41;;;;;;;33.25;10.25;;;6.10;93.00;;;;;;4989374;28;20047;-71
2021/12/03 10:47:26;;;;;;;21.27;8.75;;;6.10;93.00;;;;;;4974557;28;20487;-84
2021/12/03 10:50:04;;;;;;;18.52;8.98;;;6.10;93.00;;;;;;4974670;28;20572;-79
2021/12/03 11:01:24;;;;;;;26.45;10.35;;;6.00;93.10;;;;;;4974336;28;20043;-78
2021/12/03 11:26:04;;;;;;;28.00;10.85;;;6.00;93.80;;;;;;4973414;28;20109;-76
2021/12/03 11:28:36;;;;;;;27.05;11.85;;;5.90;93.80;;;;;;4973336;28;20065;-76
2021/12/03 11:31:12;;;;;;;25.85;11.30;;;5.90;93.80;;;;;;4973191;28;20046;-79
2021/12/03 11:55:40;;;;;;;30.35;11.80;;;6.00;94.10;;;;;;4951786;28;20019;-77
2021/12/03 12:01:12;;;;;;;25.27;11.13;;;5.90;94.20;;;;;;4973656;28;20448;-82
2021/12/03 12:47:33;;;;;;;18.13;8.18;;;6.20;91.60;;;;;;4972149;28;20039;-80
2021/12/03 12:58:28;;;;;;;12.93;5.97;;;6.30;91.50;;;;;;4971972;28;20070;-78
2021/12/03 13:21:40;;;;;;;21.50;5.43;;;6.50;90.70;;;;;;4972108;28;20031;-79
2021/12/03 13:31:01;;;;;;;13.55;3.83;;;6.50;90.40;;;;;;4971596;28;20636;-79
2021/12/03 14:14:57;;;;;;;13.00;2.95;;;6.30;90.20;;;;;;4971142;28;20034;-74
2021/12/03 14:36:25;;;;;;;9.30;2.45;;;6.10;90.10;;;;;;4975355;28;20033;-76
2021/12/03 14:57:44;;;;;;;8.80;2.50;;;6.10;90.70;;;;;;4975098;28;20038;-79
2021/12/03 15:00:36;;;;;;;11.00;2.60;;;6.10;90.60;;;;;;4974345;28;20055;-79
2021/12/03 15:19:06;;;;;;;12.70;2.88;;;5.90;90.80;;;;;;4974203;28;20488;-82
2021/12/03 15:24:44;;;;;;;12.20;2.78;;;6.00;90.60;;;;;;4974356;28;20042;-79
2021/12/03 15:32:44;;;;;;;10.15;3.08;;;6.10;90.40;;;;;;4974215;28;20520;-83
2021/12/03 15:35:22;;;;;;;11.20;1.92;;;6.00;90.40;;;;;;4973691;28;20035;-80
2021/12/03 15:40:38;;;;;;;17.17;6.43;;;6.10;90.40;;;;;;4973914;28;20049;-74
2021/12/03 15:56:37;;;;;;;10.40;2.83;;;6.00;89.70;;;;;;4973874;28;20043;-76
2021/12/03 16:04:39;;;;;;;14.80;4.25;;;6.00;89.50;;;;;;4972049;28;20130;-76
2021/12/03 16:10:03;;;;;;;6.63;2.30;;;6.10;89.50;;;;;;4973534;28;20030;-76
2021/12/03 16:50:28;;;;;;;5.70;2.08;;;5.90;90.70;;;;;;4972184;28;20097;-73
2021/12/03 16:52:51;;;;;;;6.18;2.38;;;5.90;90.70;;;;;;4972281;28;20219;-74
2021/12/03 16:55:18;;;;;;;9.32;2.45;;;6.00;90.70;;;;;;4972340;28;20350;-73
2021/12/03 16:57:45;;;;;;;12.98;2.30;;;5.90;90.70;;;;;;4971166;28;20027;-73
2021/12/03 17:00:34;;;;;;;;;;;;;;;;;;;;;
2021/12/03 17:02:57;;;;;;;11.50;2.30;;;5.80;90.70;;;;;;4972944;28;20027;-75
2021/12/03 17:53:50;;;;;;;9.07;2.53;;;5.60;91.60;;;;;;4975587;28;20035;-73
2021/12/03 17:56:17;;;;;;;8.30;2.55;;;5.70;91.60;;;;;;4975635;28;20339;-71
2021/12/03 17:58:46;;;;;;;7.03;2.55;;;5.60;91.60;;;;;;4974666;28;20125;-71
2021/12/03 18:01:37;;;;;;;7.30;2.70;;;5.60;91.80;;;;;;4975242;28;20034;-71
2021/12/03 18:04:12;;;;;;;6.35;2.45;;;5.70;91.80;;;;;;4974999;28;20031;-71
2021/12/03 18:17:31;;;;;;;10.73;2.45;;;5.70;91.70;;;;;;4995698;28;20141;-72
2021/12/03 18:53:03;;;;;;;7.40;3.05;;;5.70;92.70;;;;;;4994711;28;20097;-71
2021/12/03 18:57:59;;;;;;;5.43;2.80;;;5.70;93.20;;;;;;4994719;28;20065;-71
2021/12/03 19:00:29;;;;;;;9.55;3.13;;;5.60;93.20;;;;;;4994069;28;20042;-72
2021/12/03 19:02:57;;;;;;;6.50;3.05;;;5.70;93.50;;;;;;4995130;28;20435;-73
2021/12/03 19:08:12;;;;;;;6.85;3.17;;;5.60;93.80;;;;;;4994241;28;20121;-71
2021/12/03 19:10:44;;;;;;;6.45;3.20;;;5.60;94.10;;;;;;4994896;28;20108;-73
2021/12/03 19:13:15;;;;;;;16.92;6.20;;;5.60;94.30;;;;;;4994598;28;20055;-74
2021/12/03 19:15:42;;;;;;;9.57;3.97;;;5.70;95.70;;;;;;4994586;28;20034;-72
2021/12/03 19:18:08;;;;;;;8.90;3.22;;;5.90;94.70;;;;;;4993746;28;20038;-70
2021/12/03 19:20:38;;;;;;;5.47;3.00;;;5.70;94.40;;;;;;4994995;28;20052;-71
2021/12/03 19:23:03;;;;;;;8.20;3.17;;;5.70;94.50;;;;;;4994240;28;20033;-71
2021/12/03 19:25:29;;;;;;;10.45;3.25;;;5.60;94.50;;;;;;4994579;28;20026;-72
2021/12/03 19:27:55;;;;;;;8.25;3.50;;;5.50;94.70;;;;;;4993344;28;20130;-71
2021/12/03 19:30:20;;;;;;;5.90;3.42;;;5.60;94.70;;;;;;4992884;28;20467;-74
2021/12/03 19:32:46;;;;;;;9.45;3.65;;;5.60;94.80;;;;;;4994680;28;20445;-74
2021/12/03 19:35:13;;;;;;;8.82;3.35;;;5.60;94.90;;;;;;4993719;28;20117;-73
2021/12/03 19:37:39;;;;;;;6.00;3.28;;;5.60;95.00;;;;;;4974591;28;20500;-75
2021/12/03 19:40:08;;;;;;;5.38;2.92;;;5.60;95.00;;;;;;4974837;28;20485;-68
2021/12/03 19:42:37;;;;;;;8.32;3.67;;;5.60;95.20;;;;;;4974753;28;20054;-72
2021/12/03 19:45:07;;;;;;;7.15;3.10;;;5.60;95.10;;;;;;4973993;28;20343;-71
2021/12/03 19:55:24;;;;;;;7.10;3.70;;;5.60;95.30;;;;;;4974841;28;20055;-71
2021/12/03 19:57:50;;;;;;;8.73;3.58;;;5.50;95.30;;;;;;4974526;28;20061;-72
2021/12/03 20:00:16;;;;;;;5.35;3.03;;;5.60;95.50;;;;;;4974033;28;20088;-71
2021/12/03 20:02:41;;;;;;;6.68;3.08;;;5.60;95.40;;;;;;4974802;28;20058;-72
2021/12/03 20:05:07;;;;;;;6.40;2.95;;;5.50;95.50;;;;;;4974265;28;20062;-71
2021/12/03 20:07:33;;;;;;;5.85;3.33;;;5.50;95.50;;;;;;4989019;28;20371;-71
2021/12/03 20:10:02;;;;;;;8.38;3.20;;;5.50;95.60;;;;;;4974280;28;20045;-71